sensor_id;sensor_type;location;lat;lon;timestamp;pressure;altitude;pressure_sealevel;temperature;humidity
35551;BME280;21655;46.056;13.616;2023-06-22T00:01:15;100750.06;;;21.57;100.00
35551;BME280;21655;46.056;13.616;2023-06-22T00:03:41;100742.31;;;21.52;100.00
35551;BME280;21655;46.056;13.616;2023-06-22T00:06:06;100747.94;;;21.52;100.00
35551;BME280;21655;46.056;13.616;2023-06-22T00:08:31;100751.53;;;21.59;100.00
35551;BME280;21655;46.056;13.616;2023-06-22T00:10:57;100750.66;;;21.59;100.00
35551;BME280;21655;46.056;13.616;2023-06-22T00:13:22;100756.19;;;21.54;100.00
35551;BME280;21655;46.056;13.616;2023-06-22T00:15:48;100757.00;;;21.43;100.00
35551;BME280;21655;46.056;13.616;2023-06-22T00:18:13;100751.38;;;21.43;100.00
35551;BME280;21655;46.056;13.616;2023-06-22T00:20:39;100754.38;;;21.30;100.00
35551;BME280;21655;46.056;13.616;2023-06-22T00:23:06;100749.88;;;21.40;100.00
35551;BME280;21655;46.056;13.616;2023-06-22T00:25:37;100736.41;;;21.42;100.00
35551;BME280;21655;46.056;13.616;2023-06-22T00:28:05;100752.06;;;21.38;100.00
35551;BME280;21655;46.056;13.616;2023-06-22T00:30:31;100739.06;;;21.37;100.00
35551;BME280;21655;46.056;13.616;2023-06-22T00:32:58;100744.47;;;21.27;100.00
35551;BME280;21655;46.056;13.616;2023-06-22T00:35:24;100746.50;;;21.20;100.00
35551;BME280;21655;46.056;13.616;2023-06-22T00:37:57;100744.75;;;21.08;100.00
35551;BME280;21655;46.056;13.616;2023-06-22T00:40:31;100742.31;;;21.11;100.00
35551;BME280;21655;46.056;13.616;2023-06-22T00:42:57;100742.63;;;21.03;100.00
35551;BME280;21655;46.056;13.616;2023-06-22T00:45:23;100742.94;;;21.13;100.00
35551;BME280;21655;46.056;13.616;2023-06-22T00:47:50;100740.84;;;21.20;100.00
35551;BME280;21655;46.056;13.616;2023-06-22T00:50:20;100741.25;;;21.24;100.00
35551;BME280;21655;46.056;13.616;2023-06-22T00:52:51;100746.50;;;21.20;100.00
35551;BME280;21655;46.056;13.616;2023-06-22T00:55:16;100742.84;;;21.20;100.00
35551;BME280;21655;46.056;13.616;2023-06-22T00:57:45;100733.38;;;21.14;100.00
35551;BME280;21655;46.056;13.616;2023-06-22T01:00:11;100737.69;;;21.17;100.00
35551;BME280;21655;46.056;13.616;2023-06-22T01:02:43;100741.03;;;21.07;100.00
35551;BME280;21655;46.056;13.616;2023-06-22T01:05:12;100734.94;;;21.10;100.00
35551;BME280;21655;46.056;13.616;2023-06-22T01:10:53;100738.22;;;21.07;100.00
35551;BME280;21655;46.056;13.616;2023-06-22T01:13:35;100727.59;;;21.09;100.00
35551;BME280;21655;46.056;13.616;2023-06-22T01:16:06;100726.59;;;21.04;100.00
35551;BME280;21655;46.056;13.616;2023-06-22T01:18:36;100720.94;;;21.04;100.00
35551;BME280;21655;46.056;13.616;2023-06-22T01:21:06;100723.28;;;21.07;100.00
35551;BME280;21655;46.056;13.616;2023-06-22T01:24:37;100718.94;;;20.93;100.00
35551;BME280;21655;46.056;13.616;2023-06-22T01:29:05;100716.53;;;20.61;100.00
35551;BME280;21655;46.056;13.616;2023-06-22T01:31:33;100707.44;;;20.59;100.00
35551;BME280;21655;46.056;13.616;2023-06-22T01:34:03;100718.47;;;20.60;100.00
35551;BME280;21655;46.056;13.616;2023-06-22T01:36:32;100717.38;;;20.61;100.00
35551;BME280;21655;46.056;13.616;2023-06-22T01:38:58;100713.19;;;20.52;100.00
35551;BME280;21655;46.056;13.616;2023-06-22T01:41:25;100716.00;;;20.52;100.00
35551;BME280;21655;46.056;13.616;2023-06-22T01:43:52;100709.16;;;20.42;100.00
35551;BME280;21655;46.056;13.616;2023-06-22T01:46:18;100705.72;;;20.40;100.00
35551;BME280;21655;46.056;13.616;2023-06-22T01:48:45;100706.91;;;20.32;100.00
35551;BME280;21655;46.056;13.616;2023-06-22T01:51:11;100706.47;;;20.35;100.00
35551;BME280;21655;46.056;13.616;2023-06-22T01:53:37;100697.06;;;20.41;100.00
35551;BME280;21655;46.056;13.616;2023-06-22T01:56:03;100698.06;;;20.47;100.00
35551;BME280;21655;46.056;13.616;2023-06-22T01:58:29;100694.16;;;20.48;100.00
35551;BME280;21655;46.056;13.616;2023-06-22T02:01:03;100696.19;;;20.41;100.00
35551;BME280;21655;46.056;13.616;2023-06-22T02:03:37;100697.81;;;20.48;100.00
35551;BME280;21655;46.056;13.616;2023-06-22T02:06:07;100699.66;;;20.43;100.00
35551;BME280;21655;46.056;13.616;2023-06-22T02:08:42;100688.47;;;20.36;100.00
35551;BME280;21655;46.056;13.616;2023-06-22T02:11:13;100689.38;;;20.30;100.00
35551;BME280;21655;46.056;13.616;2023-06-22T02:13:40;100685.78;;;20.23;100.00
35551;BME280;21655;46.056;13.616;2023-06-22T02:16:11;100684.16;;;20.34;100.00
35551;BME280;21655;46.056;13.616;2023-06-22T02:18:38;100687.03;;;20.45;100.00
35551;BME280;21655;46.056;13.616;2023-06-22T02:21:05;100682.25;;;20.46;100.00
35551;BME280;21655;46.056;13.616;2023-06-22T02:23:31;100687.59;;;20.36;100.00
35551;BME280;21655;46.056;13.616;2023-06-22T02:26:00;100692.91;;;20.26;100.00
35551;BME280;21655;46.056;13.616;2023-06-22T02:28:25;100689.72;;;20.22;100.00
35551;BME280;21655;46.056;13.616;2023-06-22T02:30:51;100683.53;;;20.14;100.00
35551;BME280;21655;46.056;13.616;2023-06-22T02:33:16;100682.19;;;20.16;100.00
35551;BME280;21655;46.056;13.616;2023-06-22T02:35:42;100685.16;;;20.21;100.00
35551;BME280;21655;46.056;13.616;2023-06-22T02:38:10;100682.66;;;20.13;100.00
35551;BME280;21655;46.056;13.616;2023-06-22T02:40:36;100682.75;;;20.00;100.00
35551;BME280;21655;46.056;13.616;2023-06-22T02:43:01;100689.84;;;20.09;100.00
35551;BME280;21655;46.056;13.616;2023-06-22T02:45:28;100693.84;;;20.02;100.00
35551;BME280;21655;46.056;13.616;2023-06-22T02:47:54;100690.84;;;19.97;100.00
35551;BME280;21655;46.056;13.616;2023-06-22T02:50:19;100704.00;;;20.03;100.00
35551;BME280;21655;46.056;13.616;2023-06-22T02:52:45;100704.34;;;19.88;100.00
35551;BME280;21655;46.056;13.616;2023-06-22T02:55:10;100703.00;;;19.91;100.00
35551;BME280;21655;46.056;13.616;2023-06-22T02:57:36;100703.19;;;19.96;100.00
35551;BME280;21655;46.056;13.616;2023-06-22T03:00:03;100709.63;;;20.03;100.00
35551;BME280;21655;46.056;13.616;2023-06-22T03:02:41;100696.66;;;20.02;100.00
35551;BME280;21655;46.056;13.616;2023-06-22T03:05:07;100696.44;;;20.03;100.00
35551;BME280;21655;46.056;13.616;2023-06-22T03:07:35;100698.81;;;20.00;100.00
35551;BME280;21655;46.056;13.616;2023-06-22T03:10:00;100698.38;;;20.03;100.00
35551;BME280;21655;46.056;13.616;2023-06-22T03:12:25;100697.91;;;20.06;100.00
35551;BME280;21655;46.056;13.616;2023-06-22T03:14:51;100688.00;;;20.03;100.00
35551;BME280;21655;46.056;13.616;2023-06-22T03:17:16;100698.38;;;20.03;100.00
35551;BME280;21655;46.056;13.616;2023-06-22T03:19:41;100704.91;;;19.97;100.00
35551;BME280;21655;46.056;13.616;2023-06-22T03:22:07;100697.56;;;19.96;100.00
35551;BME280;21655;46.056;13.616;2023-06-22T03:24:38;100706.75;;;19.85;100.00
35551;BME280;21655;46.056;13.616;2023-06-22T03:27:04;100713.31;;;19.79;100.00
35551;BME280;21655;46.056;13.616;2023-06-22T03:29:30;100705.09;;;19.77;100.00
35551;BME280;21655;46.056;13.616;2023-06-22T03:31:56;100709.22;;;19.75;100.00
35551;BME280;21655;46.056;13.616;2023-06-22T03:34:21;100711.75;;;19.83;100.00
35551;BME280;21655;46.056;13.616;2023-06-22T03:36:47;100704.34;;;19.88;100.00
35551;BME280;21655;46.056;13.616;2023-06-22T03:39:12;100709.25;;;19.93;100.00
35551;BME280;21655;46.056;13.616;2023-06-22T03:41:38;100712.63;;;20.01;100.00
35551;BME280;21655;46.056;13.616;2023-06-22T03:44:04;100708.31;;;20.05;100.00
35551;BME280;21655;46.056;13.616;2023-06-22T03:46:29;100712.59;;;20.08;100.00
35551;BME280;21655;46.056;13.616;2023-06-22T03:48:55;100713.41;;;20.15;100.00
35551;BME280;21655;46.056;13.616;2023-06-22T03:51:20;100713.00;;;20.11;100.00
35551;BME280;21655;46.056;13.616;2023-06-22T03:53:46;100712.78;;;20.13;100.00
35551;BME280;21655;46.056;13.616;2023-06-22T03:56:11;100712.78;;;20.13;100.00
35551;BME280;21655;46.056;13.616;2023-06-22T03:58:37;100713.97;;;20.23;100.00
35551;BME280;21655;46.056;13.616;2023-06-22T04:01:08;100714.97;;;20.29;100.00
35551;BME280;21655;46.056;13.616;2023-06-22T04:03:37;100707.31;;;20.36;100.00
35551;BME280;21655;46.056;13.616;2023-06-22T04:06:02;100714.50;;;20.32;100.00
35551;BME280;21655;46.056;13.616;2023-06-22T04:08:27;100716.22;;;20.33;100.00
35551;BME280;21655;46.056;13.616;2023-06-22T04:10:53;100712.09;;;20.35;100.00
35551;BME280;21655;46.056;13.616;2023-06-22T04:13:18;100720.75;;;20.34;100.00
35551;BME280;21655;46.056;13.616;2023-06-22T04:15:44;100718.72;;;20.41;100.00
35551;BME280;21655;46.056;13.616;2023-06-22T04:18:10;100721.63;;;20.52;100.00
35551;BME280;21655;46.056;13.616;2023-06-22T04:20:35;100729.34;;;20.57;100.00
35551;BME280;21655;46.056;13.616;2023-06-22T04:23:01;100724.59;;;20.57;100.00
35551;BME280;21655;46.056;13.616;2023-06-22T04:25:27;100729.97;;;20.59;100.00
35551;BME280;21655;46.056;13.616;2023-06-22T04:27:52;100717.06;;;20.69;100.00
35551;BME280;21655;46.056;13.616;2023-06-22T04:30:17;100715.22;;;20.75;100.00
35551;BME280;21655;46.056;13.616;2023-06-22T04:32:43;100712.06;;;20.89;100.00
35551;BME280;21655;46.056;13.616;2023-06-22T04:35:10;100705.03;;;21.09;100.00
35551;BME280;21655;46.056;13.616;2023-06-22T04:37:35;100702.50;;;21.31;100.00
35551;BME280;21655;46.056;13.616;2023-06-22T04:40:01;100699.47;;;21.55;100.00
35551;BME280;21655;46.056;13.616;2023-06-22T04:42:26;100708.53;;;21.87;100.00
35551;BME280;21655;46.056;13.616;2023-06-22T04:44:52;100717.97;;;22.04;100.00
35551;BME280;21655;46.056;13.616;2023-06-22T04:47:17;100706.06;;;22.13;100.00
35551;BME280;21655;46.056;13.616;2023-06-22T04:49:43;100699.38;;;22.31;100.00
35551;BME280;21655;46.056;13.616;2023-06-22T04:52:11;100694.94;;;22.58;100.00
35551;BME280;21655;46.056;13.616;2023-06-22T04:54:38;100711.22;;;22.79;100.00
35551;BME280;21655;46.056;13.616;2023-06-22T04:57:06;100703.31;;;22.92;100.00
35551;BME280;21655;46.056;13.616;2023-06-22T04:59:35;100706.19;;;23.08;100.00
35551;BME280;21655;46.056;13.616;2023-06-22T05:02:02;100700.97;;;23.45;100.00
35551;BME280;21655;46.056;13.616;2023-06-22T05:04:29;100701.41;;;23.70;100.00
35551;BME280;21655;46.056;13.616;2023-06-22T05:06:57;100685.06;;;23.88;100.00
35551;BME280;21655;46.056;13.616;2023-06-22T05:09:22;100680.41;;;23.99;100.00
35551;BME280;21655;46.056;13.616;2023-06-22T05:11:49;100687.72;;;24.33;100.00
35551;BME280;21655;46.056;13.616;2023-06-22T05:14:15;100690.75;;;24.64;100.00
35551;BME280;21655;46.056;13.616;2023-06-22T05:16:41;100694.81;;;24.52;100.00
35551;BME280;21655;46.056;13.616;2023-06-22T05:19:07;100695.13;;;24.72;100.00
35551;BME280;21655;46.056;13.616;2023-06-22T05:21:33;100683.88;;;24.82;100.00
35551;BME280;21655;46.056;13.616;2023-06-22T05:23:58;100692.78;;;24.90;100.00
35551;BME280;21655;46.056;13.616;2023-06-22T05:26:29;100698.63;;;25.05;100.00
35551;BME280;21655;46.056;13.616;2023-06-22T05:28:55;100693.09;;;25.15;100.00
35551;BME280;21655;46.056;13.616;2023-06-22T05:31:21;100688.81;;;24.91;100.00
35551;BME280;21655;46.056;13.616;2023-06-22T05:33:47;100686.59;;;24.72;100.00
35551;BME280;21655;46.056;13.616;2023-06-22T05:36:13;100683.88;;;24.60;100.00
35551;BME280;21655;46.056;13.616;2023-06-22T05:38:39;100693.84;;;24.46;100.00
35551;BME280;21655;46.056;13.616;2023-06-22T05:41:05;100694.69;;;24.25;100.00
35551;BME280;21655;46.056;13.616;2023-06-22T05:43:30;100695.34;;;24.11;100.00
35551;BME280;21655;46.056;13.616;2023-06-22T05:45:56;100695.41;;;24.16;100.00
35551;BME280;21655;46.056;13.616;2023-06-22T05:48:22;100695.94;;;24.13;100.00
35551;BME280;21655;46.056;13.616;2023-06-22T05:50:47;100684.75;;;24.23;100.00
35551;BME280;21655;46.056;13.616;2023-06-22T05:53:13;100688.19;;;24.46;100.00
35551;BME280;21655;46.056;13.616;2023-06-22T05:55:38;100678.19;;;24.60;100.00
35551;BME280;21655;46.056;13.616;2023-06-22T05:58:04;100682.84;;;24.50;100.00
35551;BME280;21655;46.056;13.616;2023-06-22T06:00:29;100680.59;;;24.68;100.00
35551;BME280;21655;46.056;13.616;2023-06-22T06:02:55;100665.16;;;25.07;100.00
35551;BME280;21655;46.056;13.616;2023-06-22T06:05:20;100673.16;;;25.63;100.00
35551;BME280;21655;46.056;13.616;2023-06-22T06:07:46;100664.84;;;26.24;100.00
35551;BME280;21655;46.056;13.616;2023-06-22T06:10:12;100658.63;;;26.89;100.00
35551;BME280;21655;46.056;13.616;2023-06-22T06:12:38;100661.84;;;27.17;100.00
35551;BME280;21655;46.056;13.616;2023-06-22T06:15:04;100652.78;;;27.30;100.00
35551;BME280;21655;46.056;13.616;2023-06-22T06:17:30;100653.97;;;27.69;100.00
35551;BME280;21655;46.056;13.616;2023-06-22T06:19:55;100655.09;;;28.13;100.00
35551;BME280;21655;46.056;13.616;2023-06-22T06:22:21;100649.41;;;28.03;100.00
35551;BME280;21655;46.056;13.616;2023-06-22T06:24:47;100655.09;;;28.13;100.00
35551;BME280;21655;46.056;13.616;2023-06-22T06:27:13;100650.78;;;28.20;100.00
35551;BME280;21655;46.056;13.616;2023-06-22T06:29:39;100654.53;;;28.11;100.00
35551;BME280;21655;46.056;13.616;2023-06-22T06:32:04;100651.06;;;28.29;100.00
35551;BME280;21655;46.056;13.616;2023-06-22T06:34:30;100651.06;;;28.44;100.00
35551;BME280;21655;46.056;13.616;2023-06-22T06:36:55;100649.50;;;28.76;100.00
35551;BME280;21655;46.056;13.616;2023-06-22T06:39:21;100655.16;;;28.91;100.00
35551;BME280;21655;46.056;13.616;2023-06-22T06:41:46;100653.28;;;29.20;100.00
35551;BME280;21655;46.056;13.616;2023-06-22T06:44:11;100649.19;;;29.36;100.00
35551;BME280;21655;46.056;13.616;2023-06-22T06:46:37;100645.28;;;29.65;100.00
35551;BME280;21655;46.056;13.616;2023-06-22T06:49:03;100650.97;;;29.70;100.00
35551;BME280;21655;46.056;13.616;2023-06-22T06:51:28;100654.09;;;30.02;100.00
35551;BME280;21655;46.056;13.616;2023-06-22T06:53:54;100649.47;;;30.40;100.00
35551;BME280;21655;46.056;13.616;2023-06-22T06:56:19;100660.56;;;30.70;100.00
35551;BME280;21655;46.056;13.616;2023-06-22T06:58:45;100651.75;;;30.66;100.00
35551;BME280;21655;46.056;13.616;2023-06-22T07:01:14;100653.38;;;30.72;100.00
35551;BME280;21655;46.056;13.616;2023-06-22T07:03:39;100656.09;;;31.06;100.00
35551;BME280;21655;46.056;13.616;2023-06-22T07:06:05;100652.28;;;31.15;100.00
35551;BME280;21655;46.056;13.616;2023-06-22T07:08:30;100651.91;;;30.98;100.00
35551;BME280;21655;46.056;13.616;2023-06-22T07:10:56;100658.88;;;31.34;100.00
35551;BME280;21655;46.056;13.616;2023-06-22T07:13:21;100656.53;;;31.73;100.00
35551;BME280;21655;46.056;13.616;2023-06-22T07:15:47;100649.88;;;32.09;100.00
35551;BME280;21655;46.056;13.616;2023-06-22T07:18:12;100652.09;;;32.31;100.00
35551;BME280;21655;46.056;13.616;2023-06-22T07:20:38;100646.19;;;32.54;100.00
35551;BME280;21655;46.056;13.616;2023-06-22T07:23:04;100650.41;;;32.43;100.00
35551;BME280;21655;46.056;13.616;2023-06-22T07:25:30;100646.97;;;32.28;100.00
35551;BME280;21655;46.056;13.616;2023-06-22T07:28:04;100643.78;;;32.43;100.00
35551;BME280;21655;46.056;13.616;2023-06-22T07:30:31;100640.44;;;32.95;100.00
35551;BME280;21655;46.056;13.616;2023-06-22T07:32:57;100645.56;;;32.98;100.00
35551;BME280;21655;46.056;13.616;2023-06-22T07:35:24;100635.31;;;32.92;100.00
35551;BME280;21655;46.056;13.616;2023-06-22T07:37:49;100634.56;;;33.27;100.00
35551;BME280;21655;46.056;13.616;2023-06-22T07:40:14;100640.78;;;33.20;100.00
35551;BME280;21655;46.056;13.616;2023-06-22T07:42:40;100633.69;;;33.75;100.00
35551;BME280;21655;46.056;13.616;2023-06-22T07:45:06;100643.34;;;34.01;100.00
35551;BME280;21655;46.056;13.616;2023-06-22T07:47:33;100638.91;;;33.95;100.00
35551;BME280;21655;46.056;13.616;2023-06-22T07:50:00;100638.47;;;34.01;100.00
35551;BME280;21655;46.056;13.616;2023-06-22T07:52:30;100630.53;;;34.07;100.00
35551;BME280;21655;46.056;13.616;2023-06-22T07:54:56;100628.03;;;34.14;100.00
35551;BME280;21655;46.056;13.616;2023-06-22T07:57:22;100626.22;;;33.96;100.00
35551;BME280;21655;46.056;13.616;2023-06-22T07:59:47;100626.16;;;34.31;100.00
35551;BME280;21655;46.056;13.616;2023-06-22T08:02:12;100626.31;;;35.04;100.00
35551;BME280;21655;46.056;13.616;2023-06-22T08:04:38;100629.72;;;35.15;98.81
35551;BME280;21655;46.056;13.616;2023-06-22T08:07:04;100624.50;;;35.34;97.47
35551;BME280;21655;46.056;13.616;2023-06-22T08:09:32;100625.75;;;35.66;92.63
35551;BME280;21655;46.056;13.616;2023-06-22T08:11:58;100621.81;;;35.29;100.00
35551;BME280;21655;46.056;13.616;2023-06-22T08:14:25;100621.81;;;35.54;90.20
35551;BME280;21655;46.056;13.616;2023-06-22T08:16:51;100623.69;;;35.42;96.47
35551;BME280;21655;46.056;13.616;2023-06-22T08:19:16;100636.25;;;35.46;98.42
35551;BME280;21655;46.056;13.616;2023-06-22T08:21:43;100622.34;;;35.90;95.45
35551;BME280;21655;46.056;13.616;2023-06-22T08:24:08;100625.91;;;36.04;87.71
35551;BME280;21655;46.056;13.616;2023-06-22T08:26:34;100623.28;;;36.45;88.88
35551;BME280;21655;46.056;13.616;2023-06-22T08:29:04;100614.72;;;36.65;79.78
35551;BME280;21655;46.056;13.616;2023-06-22T08:31:31;100609.44;;;36.76;78.31
35551;BME280;21655;46.056;13.616;2023-06-22T08:33:58;100614.72;;;36.65;87.04
35551;BME280;21655;46.056;13.616;2023-06-22T08:36:24;100608.81;;;36.53;84.70
35551;BME280;21655;46.056;13.616;2023-06-22T08:38:51;100614.53;;;36.16;85.50
35551;BME280;21655;46.056;13.616;2023-06-22T08:41:17;100610.69;;;36.49;86.41
35551;BME280;21655;46.056;13.616;2023-06-22T08:43:44;100616.25;;;36.71;83.86
35551;BME280;21655;46.056;13.616;2023-06-22T08:46:10;100602.59;;;36.34;81.70
35551;BME280;21655;46.056;13.616;2023-06-22T08:48:36;100609.66;;;36.45;87.40
35551;BME280;21655;46.056;13.616;2023-06-22T08:51:01;100608.25;;;37.06;84.52
35551;BME280;21655;46.056;13.616;2023-06-22T08:53:27;100612.06;;;37.47;77.13
35551;BME280;21655;46.056;13.616;2023-06-22T08:55:53;100605.56;;;37.71;72.86
35551;BME280;21655;46.056;13.616;2023-06-22T08:58:18;100606.78;;;37.70;73.51
35551;BME280;21655;46.056;13.616;2023-06-22T09:00:45;100601.63;;;37.55;77.45
35551;BME280;21655;46.056;13.616;2023-06-22T09:03:10;100596.91;;;36.92;83.17
35551;BME280;21655;46.056;13.616;2023-06-22T09:05:37;100595.34;;;37.53;82.18
35551;BME280;21655;46.056;13.616;2023-06-22T09:08:03;100592.53;;;37.65;80.04
35551;BME280;21655;46.056;13.616;2023-06-22T09:10:28;100591.41;;;38.10;72.17
35551;BME280;21655;46.056;13.616;2023-06-22T09:12:54;100584.63;;;37.85;76.69
35551;BME280;21655;46.056;13.616;2023-06-22T09:15:19;100586.25;;;38.15;77.53
35551;BME280;21655;46.056;13.616;2023-06-22T09:17:45;100584.50;;;38.47;78.61
35551;BME280;21655;46.056;13.616;2023-06-22T09:20:12;100583.50;;;38.99;72.62
35551;BME280;21655;46.056;13.616;2023-06-22T09:22:37;100579.25;;;38.73;75.32
35551;BME280;21655;46.056;13.616;2023-06-22T09:25:03;100586.50;;;38.79;72.32
35551;BME280;21655;46.056;13.616;2023-06-22T09:27:29;100576.91;;;37.78;81.01
35551;BME280;21655;46.056;13.616;2023-06-22T09:29:55;100574.50;;;36.81;95.46
35551;BME280;21655;46.056;13.616;2023-06-22T09:32:20;100590.66;;;36.36;98.74
35551;BME280;21655;46.056;13.616;2023-06-22T09:34:46;100571.50;;;36.06;100.00
35551;BME280;21655;46.056;13.616;2023-06-22T09:37:11;100576.78;;;36.04;100.00
35551;BME280;21655;46.056;13.616;2023-06-22T09:39:37;100575.75;;;36.25;100.00
35551;BME280;21655;46.056;13.616;2023-06-22T09:42:02;100580.00;;;36.28;99.51
35551;BME280;21655;46.056;13.616;2023-06-22T09:44:28;100580.53;;;36.04;100.00
35551;BME280;21655;46.056;13.616;2023-06-22T09:46:54;100581.81;;;36.41;100.00
35551;BME280;21655;46.056;13.616;2023-06-22T09:49:19;100572.38;;;36.15;100.00
35551;BME280;21655;46.056;13.616;2023-06-22T09:51:44;100575.91;;;36.29;100.00
35551;BME280;21655;46.056;13.616;2023-06-22T09:54:10;100563.81;;;36.35;100.00
35551;BME280;21655;46.056;13.616;2023-06-22T09:56:35;100563.81;;;36.35;100.00
35551;BME280;21655;46.056;13.616;2023-06-22T09:59:02;100561.53;;;35.95;100.00
35551;BME280;21655;46.056;13.616;2023-06-22T10:01:28;100554.88;;;36.03;100.00
35551;BME280;21655;46.056;13.616;2023-06-22T10:03:53;100564.97;;;35.55;100.00
35551;BME280;21655;46.056;13.616;2023-06-22T10:06:22;100559.00;;;35.34;100.00
35551;BME280;21655;46.056;13.616;2023-06-22T10:08:49;100562.22;;;35.58;100.00
35551;BME280;21655;46.056;13.616;2023-06-22T10:11:15;100561.56;;;35.78;100.00
35551;BME280;21655;46.056;13.616;2023-06-22T10:13:40;100555.78;;;35.78;100.00
35551;BME280;21655;46.056;13.616;2023-06-22T10:16:05;100558.81;;;35.31;100.00
35551;BME280;21655;46.056;13.616;2023-06-22T10:18:32;100563.41;;;35.74;100.00
35551;BME280;21655;46.056;13.616;2023-06-22T10:20:57;100560.53;;;35.82;100.00
35551;BME280;21655;46.056;13.616;2023-06-22T10:23:23;100560.41;;;35.62;100.00
35551;BME280;21655;46.056;13.616;2023-06-22T10:25:48;100554.53;;;36.04;100.00
35551;BME280;21655;46.056;13.616;2023-06-22T10:28:14;100566.47;;;35.86;100.00
35551;BME280;21655;46.056;13.616;2023-06-22T10:30:40;100568.69;;;35.63;100.00
35551;BME280;21655;46.056;13.616;2023-06-22T10:33:09;100566.69;;;35.64;100.00
35551;BME280;21655;46.056;13.616;2023-06-22T10:35:35;100560.53;;;35.23;100.00
35551;BME280;21655;46.056;13.616;2023-06-22T10:38:03;100556.44;;;35.58;100.00
35551;BME280;21655;46.056;13.616;2023-06-22T10:40:28;100556.97;;;35.52;100.00
35551;BME280;21655;46.056;13.616;2023-06-22T10:42:54;100552.53;;;35.54;100.00
35551;BME280;21655;46.056;13.616;2023-06-22T10:45:19;100550.16;;;35.31;100.00
35551;BME280;21655;46.056;13.616;2023-06-22T10:47:45;100548.16;;;35.48;100.00
35551;BME280;21655;46.056;13.616;2023-06-22T10:50:11;100549.84;;;35.41;100.00
35551;BME280;21655;46.056;13.616;2023-06-22T10:52:36;100550.63;;;34.99;100.00
35551;BME280;21655;46.056;13.616;2023-06-22T10:55:02;100538.53;;;34.71;100.00
35551;BME280;21655;46.056;13.616;2023-06-22T10:57:27;100540.25;;;34.81;100.00
35551;BME280;21655;46.056;13.616;2023-06-22T10:59:53;100537.75;;;35.05;100.00
35551;BME280;21655;46.056;13.616;2023-06-22T11:02:18;100529.81;;;35.19;100.00
35551;BME280;21655;46.056;13.616;2023-06-22T11:04:44;100525.41;;;35.21;100.00
35551;BME280;21655;46.056;13.616;2023-06-22T11:07:09;100526.44;;;34.61;100.00
35551;BME280;21655;46.056;13.616;2023-06-22T11:09:35;100513.78;;;34.87;100.00
35551;BME280;21655;46.056;13.616;2023-06-22T11:12:01;100514.81;;;35.00;100.00
35551;BME280;21655;46.056;13.616;2023-06-22T11:14:26;100514.22;;;35.20;100.00
35551;BME280;21655;46.056;13.616;2023-06-22T11:16:52;100517.56;;;35.05;100.00
35551;BME280;21655;46.056;13.616;2023-06-22T11:19:18;100518.69;;;34.70;100.00
35551;BME280;21655;46.056;13.616;2023-06-22T11:21:43;100524.09;;;34.71;100.00
35551;BME280;21655;46.056;13.616;2023-06-22T11:24:09;100512.75;;;34.75;100.00
35551;BME280;21655;46.056;13.616;2023-06-22T11:26:34;100510.50;;;34.55;100.00
35551;BME280;21655;46.056;13.616;2023-06-22T11:29:00;100512.16;;;34.47;100.00
35551;BME280;21655;46.056;13.616;2023-06-22T11:31:26;100504.16;;;34.05;100.00
35551;BME280;21655;46.056;13.616;2023-06-22T11:33:51;100502.31;;;34.40;100.00
35551;BME280;21655;46.056;13.616;2023-06-22T11:36:17;100513.53;;;34.67;100.00
35551;BME280;21655;46.056;13.616;2023-06-22T11:38:43;100511.19;;;34.60;100.00
35551;BME280;21655;46.056;13.616;2023-06-22T11:41:09;100496.66;;;34.35;100.00
35551;BME280;21655;46.056;13.616;2023-06-22T11:43:35;100504.53;;;34.51;100.00
35551;BME280;21655;46.056;13.616;2023-06-22T11:46:02;100495.22;;;34.63;100.00
35551;BME280;21655;46.056;13.616;2023-06-22T11:48:28;100493.06;;;34.68;100.00
35551;BME280;21655;46.056;13.616;2023-06-22T11:50:54;100499.91;;;34.33;100.00
35551;BME280;21655;46.056;13.616;2023-06-22T11:53:21;100495.72;;;34.56;100.00
35551;BME280;21655;46.056;13.616;2023-06-22T11:55:46;100501.19;;;34.66;100.00
35551;BME280;21655;46.056;13.616;2023-06-22T11:58:12;100503.44;;;34.69;100.00
35551;BME280;21655;46.056;13.616;2023-06-22T12:00:38;100486.63;;;34.71;100.00
35551;BME280;21655;46.056;13.616;2023-06-22T12:03:03;100496.25;;;34.67;100.00
35551;BME280;21655;46.056;13.616;2023-06-22T12:05:29;100486.16;;;35.03;100.00
35551;BME280;21655;46.056;13.616;2023-06-22T12:07:55;100476.69;;;35.28;100.00
35551;BME280;21655;46.056;13.616;2023-06-22T12:10:25;100485.47;;;35.06;100.00
35551;BME280;21655;46.056;13.616;2023-06-22T12:12:51;100482.56;;;34.72;100.00
35551;BME280;21655;46.056;13.616;2023-06-22T12:15:16;100477.84;;;34.85;100.00
35551;BME280;21655;46.056;13.616;2023-06-22T12:17:42;100479.69;;;34.81;100.00
35551;BME280;21655;46.056;13.616;2023-06-22T12:20:07;100484.22;;;34.65;100.00
35551;BME280;21655;46.056;13.616;2023-06-22T12:22:34;100476.41;;;34.57;100.00
35551;BME280;21655;46.056;13.616;2023-06-22T12:24:59;100480.69;;;34.20;100.00
35551;BME280;21655;46.056;13.616;2023-06-22T12:27:25;100488.88;;;34.27;100.00
35551;BME280;21655;46.056;13.616;2023-06-22T12:29:51;100493.13;;;34.29;100.00
35551;BME280;21655;46.056;13.616;2023-06-22T12:32:17;100481.66;;;34.46;100.00